Time;durP1;ratioP1;P1;durP2;ratioP2;P2;SDS_P1;SDS_P2;PMS_P1;PMS_P2;Temp;Humidity;BMP_temperature;BMP_pressure;BME280_temperature;BME280_humidity;BME280_pressure;Samples;Min_cycle;Max_cycle;Signal;HPM_P1;HPM_P2
2022/04/24 00:01:31;;;;;;;17.30;13.00;;;;;;;;;;4973409;28;20113;-65
2022/04/24 00:03:58;;;;;;;21.63;14.48;;;;;;;;;;4973347;28;20178;-66
2022/04/24 00:06:25;;;;;;;17.52;13.93;;;;;;;;;;4973614;28;20101;-66
2022/04/24 00:08:51;;;;;;;18.20;14.43;;;;;;;;;;4973405;28;20054;-66
2022/04/24 00:11:18;;;;;;;16.10;13.35;;;;;;;;;;4973731;28;20046;-66
2022/04/24 00:13:45;;;;;;;17.38;14.10;;;;;;;;;;4973247;28;20510;-66
2022/04/24 00:16:12;;;;;;;19.42;14.30;;;;;;;;;;4973225;28;20051;-66
2022/04/24 00:18:38;;;;;;;18.70;13.98;;;;;;;;;;4973064;28;20489;-66
2022/04/24 00:21:05;;;;;;;18.23;13.40;;;;;;;;;;4978927;28;20458;-66
2022/04/24 00:23:32;;;;;;;18.17;14.10;;;;;;;;;;4992924;28;20065;-65
2022/04/24 00:25:59;;;;;;;17.70;13.50;;;;;;;;;;4992722;28;20053;-66
2022/04/24 00:28:27;;;;;;;20.30;13.65;;;;;;;;;;4992548;28;20080;-66
2022/04/24 00:30:54;;;;;;;19.17;14.65;;;;;;;;;;4992053;28;20050;-66
2022/04/24 00:33:20;;;;;;;17.85;13.48;;;;;;;;;;4992426;28;20501;-66
2022/04/24 00:35:47;;;;;;;18.15;12.80;;;;;;;;;;4992557;28;20053;-65
2022/04/24 00:38:13;;;;;;;16.20;12.70;;;;;;;;;;4992268;28;20061;-65
2022/04/24 00:40:40;;;;;;;17.85;13.80;;;;;;;;;;4991852;28;20058;-65
2022/04/24 00:43:07;;;;;;;18.67;14.45;;;;;;;;;;4992336;28;20468;-65
2022/04/24 00:45:33;;;;;;;19.00;13.65;;;;;;;;;;4992241;28;20097;-65
2022/04/24 00:48:00;;;;;;;17.27;14.32;;;;;;;;;;4992225;28;20502;-65
2022/04/24 00:50:27;;;;;;;17.70;14.23;;;;;;;;;;4975251;28;20116;-65
2022/04/24 00:52:53;;;;;;;17.58;13.65;;;;;;;;;;4992567;28;20063;-65
2022/04/24 00:55:23;;;;;;;18.00;13.40;;;;;;;;;;4992326;28;20528;-66
2022/04/24 00:57:49;;;;;;;18.10;13.82;;;;;;;;;;4992188;28;20050;-66
2022/04/24 01:00:16;;;;;;;19.52;14.50;;;;;;;;;;4992139;28;20057;-66
2022/04/24 01:02:43;;;;;;;17.50;14.23;;;;;;;;;;4995005;28;20093;-66
2022/04/24 01:05:10;;;;;;;16.30;12.77;;;;;;;;;;4986030;28;20106;-66
2022/04/24 01:07:37;;;;;;;17.33;13.10;;;;;;;;;;4975293;28;20047;-65
2022/04/24 01:10:04;;;;;;;18.60;13.07;;;;;;;;;;4976423;28;20055;-66
2022/04/24 01:12:31;;;;;;;22.77;15.23;;;;;;;;;;4990521;28;20050;-66
2022/04/24 01:14:57;;;;;;;15.15;12.35;;;;;;;;;;4995946;28;20061;-66
2022/04/24 01:17:24;;;;;;;16.40;13.07;;;;;;;;;;4996215;28;20073;-67
2022/04/24 01:19:51;;;;;;;13.43;11.88;;;;;;;;;;4978738;28;20088;-66
2022/04/24 01:22:17;;;;;;;16.50;13.30;;;;;;;;;;4993882;28;20053;-66
2022/04/24 01:24:44;;;;;;;18.55;12.77;;;;;;;;;;4994893;28;20069;-66
2022/04/24 01:27:11;;;;;;;16.05;11.90;;;;;;;;;;4995607;28;20073;-66
2022/04/24 01:29:37;;;;;;;16.00;12.27;;;;;;;;;;4995648;28;20046;-66
2022/04/24 01:32:04;;;;;;;14.73;12.68;;;;;;;;;;4985302;28;20050;-66
2022/04/24 01:34:31;;;;;;;14.48;11.30;;;;;;;;;;4976473;28;20057;-66
2022/04/24 01:36:58;;;;;;;15.15;11.32;;;;;;;;;;4976075;28;20077;-66
2022/04/24 01:39:24;;;;;;;13.13;10.98;;;;;;;;;;4976005;28;20062;-66
2022/04/24 01:41:51;;;;;;;13.65;11.45;;;;;;;;;;4983806;28;20353;-66
2022/04/24 01:44:18;;;;;;;15.35;12.57;;;;;;;;;;4995374;28;20050;-66
2022/04/24 01:46:45;;;;;;;13.13;10.77;;;;;;;;;;4995414;28;20050;-66
2022/04/24 01:49:11;;;;;;;15.18;12.50;;;;;;;;;;4995248;28;20542;-66
2022/04/24 01:51:38;;;;;;;16.52;11.90;;;;;;;;;;4995260;28;20196;-66
2022/04/24 01:54:05;;;;;;;16.35;12.38;;;;;;;;;;4995230;28;20133;-66
2022/04/24 01:56:31;;;;;;;13.95;11.68;;;;;;;;;;4995135;28;20046;-66
2022/04/24 01:58:58;;;;;;;14.82;11.35;;;;;;;;;;4995429;28;20421;-65
2022/04/24 02:01:25;;;;;;;13.88;11.35;;;;;;;;;;4991120;28;20047;-66
2022/04/24 02:03:52;;;;;;;17.00;11.27;;;;;;;;;;4976031;28;20577;-66
2022/04/24 02:06:19;;;;;;;13.60;10.50;;;;;;;;;;4974270;28;20503;-66
2022/04/24 02:08:45;;;;;;;13.65;11.13;;;;;;;;;;4975429;28;20425;-66
2022/04/24 02:11:12;;;;;;;13.52;11.40;;;;;;;;;;4977241;28;20058;-66
2022/04/24 02:13:39;;;;;;;13.60;11.23;;;;;;;;;;4994558;28;20050;-66
2022/04/24 02:16:05;;;;;;;13.75;11.15;;;;;;;;;;4995097;28;20050;-66
2022/04/24 02:18:33;;;;;;;13.48;11.07;;;;;;;;;;4994844;28;20488;-66
2022/04/24 02:20:59;;;;;;;13.85;11.13;;;;;;;;;;4994685;28;20058;-66
2022/04/24 02:23:27;;;;;;;13.40;11.65;;;;;;;;;;4995193;28;20486;-65
2022/04/24 02:25:54;;;;;;;12.98;11.05;;;;;;;;;;4994908;28;20054;-66
2022/04/24 02:28:21;;;;;;;13.60;11.73;;;;;;;;;;4994461;28;20053;-66
2022/04/24 02:30:47;;;;;;;14.43;12.07;;;;;;;;;;4994445;28;20047;-66
2022/04/24 02:33:14;;;;;;;16.48;11.15;;;;;;;;;;4976630;28;20088;-66
2022/04/24 02:35:41;;;;;;;13.75;11.77;;;;;;;;;;4994552;28;20046;-66
2022/04/24 02:38:07;;;;;;;16.13;12.18;;;;;;;;;;4994476;28;20053;-66
2022/04/24 02:40:34;;;;;;;17.08;11.88;;;;;;;;;;4994303;28;20133;-66
2022/04/24 02:43:01;;;;;;;18.30;13.73;;;;;;;;;;4978714;28;20403;-66
2022/04/24 02:45:28;;;;;;;18.77;14.23;;;;;;;;;;4975087;28;20458;-66
2022/04/24 02:47:54;;;;;;;17.30;13.10;;;;;;;;;;4974829;28;20072;-66
2022/04/24 02:50:23;;;;;;;22.38;15.35;;;;;;;;;;4974940;28;20047;-66
2022/04/24 02:52:52;;;;;;;19.95;14.65;;;;;;;;;;4974808;28;20046;-65
2022/04/24 02:55:19;;;;;;;18.80;15.10;;;;;;;;;;4974590;28;20047;-65
2022/04/24 02:57:46;;;;;;;19.13;15.30;;;;;;;;;;4974564;28;20054;-65
2022/04/24 03:00:19;;;;;;;19.45;16.33;;;;;;;;;;4974676;28;20050;-66
2022/04/24 03:02:46;;;;;;;20.27;15.60;;;;;;;;;;4974390;28;20138;-65
2022/04/24 03:05:15;;;;;;;21.02;16.42;;;;;;;;;;4974377;28;20090;-66
2022/04/24 03:07:42;;;;;;;22.23;16.58;;;;;;;;;;4974729;28;20050;-66
2022/04/24 03:10:11;;;;;;;49.25;28.13;;;;;;;;;;5028752;23;20062;-68
2022/04/24 03:12:40;;;;;;;49.47;28.52;;;;;;;;;;5013181;28;20069;-68
2022/04/24 03:15:08;;;;;;;24.42;17.73;;;;;;;;;;5013567;28;20073;-67
2022/04/24 03:17:35;;;;;;;67.80;38.40;;;;;;;;;;5013412;28;20042;-68
2022/04/24 03:20:04;;;;;;;36.88;23.92;;;;;;;;;;5013632;28;20432;-69
2022/04/24 03:22:33;;;;;;;28.98;19.67;;;;;;;;;;5012883;28;20086;-69
2022/04/24 03:25:05;;;;;;;28.17;20.20;;;;;;;;;;5012443;28;20054;-67
2022/04/24 03:27:32;;;;;;;27.25;19.35;;;;;;;;;;5012887;28;20046;-67
2022/04/24 03:29:59;;;;;;;30.75;19.55;;;;;;;;;;5012780;28;20053;-67
2022/04/24 03:32:29;;;;;;;28.70;20.02;;;;;;;;;;5012724;28;20053;-66
2022/04/24 03:34:56;;;;;;;31.52;19.92;;;;;;;;;;5012123;28;20428;-67
2022/04/24 03:37:26;;;;;;;27.48;19.38;;;;;;;;;;5013101;28;20042;-68
2022/04/24 03:39:52;;;;;;;28.80;19.95;;;;;;;;;;5012881;28;20054;-67
2022/04/24 03:42:19;;;;;;;30.10;21.05;;;;;;;;;;5012797;28;20049;-67
2022/04/24 03:44:46;;;;;;;27.88;20.48;;;;;;;;;;5012622;28;20057;-67
2022/04/24 03:47:14;;;;;;;31.13;20.55;;;;;;;;;;5013097;28;20045;-66
2022/04/24 03:49:41;;;;;;;26.50;19.83;;;;;;;;;;5011748;28;20095;-67
2022/04/24 03:52:08;;;;;;;29.38;19.30;;;;;;;;;;5012767;28;20090;-66
2022/04/24 03:54:35;;;;;;;28.75;19.73;;;;;;;;;;5012719;28;20049;-67
2022/04/24 03:57:02;;;;;;;29.45;19.90;;;;;;;;;;5012643;28;20046;-66
2022/04/24 03:59:29;;;;;;;27.48;19.25;;;;;;;;;;5012335;28;20061;-68
2022/04/24 04:01:56;;;;;;;27.08;19.58;;;;;;;;;;5012545;28;20049;-66
2022/04/24 04:04:23;;;;;;;28.63;19.40;;;;;;;;;;5012518;28;20265;-66
2022/04/24 04:06:49;;;;;;;27.00;19.50;;;;;;;;;;5012425;28;20057;-67
2022/04/24 04:09:16;;;;;;;26.98;18.75;;;;;;;;;;5012138;28;20050;-67
2022/04/24 04:11:43;;;;;;;32.13;20.33;;;;;;;;;;5012182;28;20050;-67
2022/04/24 04:14:09;;;;;;;30.50;20.17;;;;;;;;;;5012473;28;20060;-67
2022/04/24 04:16:36;;;;;;;28.35;19.35;;;;;;;;;;5012330;28;20050;-67
2022/04/24 04:19:03;;;;;;;33.72;21.95;;;;;;;;;;5012085;28;20508;-67
2022/04/24 04:21:30;;;;;;;31.20;21.52;;;;;;;;;;5011948;28;20057;-68
2022/04/24 04:23:56;;;;;;;32.08;22.42;;;;;;;;;;5012105;28;20527;-68
2022/04/24 04:26:23;;;;;;;32.58;21.75;;;;;;;;;;5010962;28;20060;-68
2022/04/24 04:28:50;;;;;;;27.85;20.42;;;;;;;;;;5012201;28;20049;-68
2022/04/24 04:31:17;;;;;;;32.33;20.83;;;;;;;;;;5012135;28;20293;-68
2022/04/24 04:33:45;;;;;;;29.55;21.10;;;;;;;;;;5012248;28;20081;-68
2022/04/24 04:36:11;;;;;;;33.40;22.45;;;;;;;;;;5011231;28;20057;-68
2022/04/24 04:38:38;;;;;;;30.35;21.42;;;;;;;;;;5011776;28;20417;-68
2022/04/24 04:41:05;;;;;;;35.35;22.23;;;;;;;;;;5011745;28;20061;-68
2022/04/24 04:43:31;;;;;;;33.28;21.80;;;;;;;;;;5011808;28;20484;-68
2022/04/24 04:45:58;;;;;;;34.00;21.98;;;;;;;;;;5011977;28;20057;-68
2022/04/24 04:48:26;;;;;;;38.83;23.55;;;;;;;;;;5011788;28;20129;-67
2022/04/24 04:50:53;;;;;;;37.83;24.25;;;;;;;;;;5011782;28;20054;-68
2022/04/24 04:53:20;;;;;;;43.13;25.42;;;;;;;;;;5011831;28;20573;-67
2022/04/24 04:55:47;;;;;;;28.13;17.85;;;;;;;;;;5011797;28;20456;-67
2022/04/24 04:58:14;;;;;;;19.23;12.60;;;;;;;;;;5011548;28;20046;-67
2022/04/24 05:00:41;;;;;;;16.38;10.02;;;;;;;;;;5011672;28;20050;-68
2022/04/24 05:03:08;;;;;;;7.47;6.13;;;;;;;;;;5011804;28;20053;-67
2022/04/24 05:05:35;;;;;;;6.93;4.50;;;;;;;;;;5011778;28;20061;-67
2022/04/24 05:08:02;;;;;;;5.10;4.03;;;;;;;;;;5011699;28;20080;-67
2022/04/24 05:10:28;;;;;;;3.60;2.38;;;;;;;;;;4992085;28;20057;-68
2022/04/24 05:12:55;;;;;;;3.72;2.20;;;;;;;;;;4992119;28;20050;-68
2022/04/24 05:15:22;;;;;;;2.35;1.73;;;;;;;;;;4992489;28;20062;-67
2022/04/24 05:17:49;;;;;;;2.03;1.40;;;;;;;;;;4992170;28;20042;-68
2022/04/24 05:20:16;;;;;;;2.30;0.88;;;;;;;;;;4991977;28;20510;-67
2022/04/24 05:22:42;;;;;;;2.10;1.42;;;;;;;;;;4991702;28;20058;-66
2022/04/24 05:25:10;;;;;;;2.88;1.08;;;;;;;;;;4992433;28;20050;-67
2022/04/24 05:27:37;;;;;;;2.47;1.02;;;;;;;;;;4992183;28;20060;-67
2022/04/24 05:30:05;;;;;;;1.55;1.00;;;;;;;;;;4991926;28;20054;-67
2022/04/24 05:32:42;;;;;;;2.42;0.60;;;;;;;;;;4991821;28;20133;-68
2022/04/24 05:35:09;;;;;;;0.60;0.40;;;;;;;;;;4991997;28;20073;-68
2022/04/24 05:37:36;;;;;;;0.73;0.45;;;;;;;;;;4992147;28;20061;-68
2022/04/24 05:40:04;;;;;;;0.45;0.43;;;;;;;;;;4991777;28;20493;-67
2022/04/24 05:42:31;;;;;;;0.40;0.30;;;;;;;;;;4991847;28;20050;-67
2022/04/24 05:45:04;;;;;;;0.45;0.35;;;;;;;;;;4992013;28;20058;-68
2022/04/24 05:47:31;;;;;;;2.17;0.43;;;;;;;;;;4991516;28;20050;-67
2022/04/24 05:49:57;;;;;;;1.05;0.40;;;;;;;;;;4995217;28;20058;-69
2022/04/24 05:52:27;;;;;;;0.15;0.10;;;;;;;;;;4995440;28;20046;-67
2022/04/24 05:54:54;;;;;;;1.23;0.10;;;;;;;;;;4995414;28;20058;-69
2022/04/24 05:57:20;;;;;;;0.20;0.20;;;;;;;;;;4995100;28;20108;-66
2022/04/24 05:59:47;;;;;;;0.45;0.20;;;;;;;;;;5008081;28;20056;-67
2022/04/24 06:02:14;;;;;;;0.45;0.30;;;;;;;;;;5014637;28;20049;-69
2022/04/24 06:04:40;;;;;;;1.13;0.35;;;;;;;;;;5014779;28;20116;-68
2022/04/24 06:07:08;;;;;;;0.82;0.20;;;;;;;;;;5015001;28;20062;-67
2022/04/24 06:09:35;;;;;;;0.45;0.22;;;;;;;;;;5014403;28;20050;-68
2022/04/24 06:12:02;;;;;;;4.45;0.35;;;;;;;;;;5014450;28;20049;-69
2022/04/24 06:14:29;;;;;;;0.13;0.10;;;;;;;;;;5014821;28;20076;-67
2022/04/24 06:16:55;;;;;;;1.17;0.47;;;;;;;;;;5013250;28;20046;-67
2022/04/24 06:19:22;;;;;;;0.38;0.20;;;;;;;;;;5014188;28;20058;-69
2022/04/24 06:21:49;;;;;;;2.70;0.30;;;;;;;;;;5014066;28;20065;-68
2022/04/24 06:24:16;;;;;;;0.47;0.20;;;;;;;;;;5014399;28;20080;-68
2022/04/24 06:26:44;;;;;;;0.00;0.00;;;;;;;;;;5013240;28;20054;-67
2022/04/24 06:29:12;;;;;;;0.10;0.10;;;;;;;;;;5014032;28;20050;-67
2022/04/24 06:31:39;;;;;;;0.98;0.20;;;;;;;;;;5014119;28;20449;-69
2022/04/24 06:34:06;;;;;;;0.68;0.20;;;;;;;;;;5014051;28;20049;-67
2022/04/24 06:36:32;;;;;;;1.38;0.20;;;;;;;;;;5014308;28;20053;-67
2022/04/24 06:39:00;;;;;;;0.90;0.40;;;;;;;;;;5014182;28;20413;-66
2022/04/24 06:41:27;;;;;;;0.10;0.00;;;;;;;;;;5013921;28;20107;-69
2022/04/24 06:43:54;;;;;;;1.35;0.20;;;;;;;;;;5013843;28;20415;-67
2022/04/24 06:46:21;;;;;;;3.28;0.38;;;;;;;;;;5014159;28;20050;-67
2022/04/24 06:48:48;;;;;;;0.20;0.10;;;;;;;;;;5013818;28;20041;-67
2022/04/24 06:51:14;;;;;;;0.55;0.20;;;;;;;;;;5013574;28;20084;-67
2022/04/24 06:53:41;;;;;;;0.20;0.13;;;;;;;;;;5013860;28;20061;-69
2022/04/24 06:56:08;;;;;;;0.57;0.00;;;;;;;;;;5013906;28;20050;-68
2022/04/24 06:58:35;;;;;;;0.20;0.10;;;;;;;;;;5013127;28;20269;-68
2022/04/24 07:01:08;;;;;;;0.10;0.10;;;;;;;;;;5013309;28;20046;-68
2022/04/24 07:03:35;;;;;;;0.65;0.47;;;;;;;;;;5012965;28;20046;-67
2022/04/24 07:06:03;;;;;;;0.10;0.10;;;;;;;;;;5012484;28;20137;-68
2022/04/24 07:08:30;;;;;;;0.20;0.13;;;;;;;;;;5013420;28;20054;-67
2022/04/24 07:10:57;;;;;;;0.15;0.15;;;;;;;;;;5013206;28;20563;-67
2022/04/24 07:13:24;;;;;;;1.10;0.10;;;;;;;;;;5013665;28;20068;-66
2022/04/24 07:15:52;;;;;;;0.43;0.10;;;;;;;;;;5012232;28;20080;-66
2022/04/24 07:18:19;;;;;;;0.10;0.10;;;;;;;;;;5012971;28;20120;-66
2022/04/24 07:20:46;;;;;;;0.90;0.20;;;;;;;;;;5012845;28;20054;-66
2022/04/24 07:23:13;;;;;;;0.20;0.17;;;;;;;;;;5013279;28;20406;-67
2022/04/24 07:25:43;;;;;;;0.30;0.10;;;;;;;;;;5012955;28;20050;-66
2022/04/24 07:28:11;;;;;;;0.28;0.28;;;;;;;;;;5011525;28;20046;-67
2022/04/24 07:30:38;;;;;;;0.40;0.30;;;;;;;;;;5011146;28;20541;-66
2022/04/24 07:33:05;;;;;;;0.93;0.40;;;;;;;;;;5010904;28;20049;-66
2022/04/24 07:35:34;;;;;;;0.63;0.50;;;;;;;;;;5010965;28;20050;-66
2022/04/24 07:38:01;;;;;;;0.77;0.45;;;;;;;;;;5010992;28;20053;-66
2022/04/24 07:40:29;;;;;;;0.20;0.20;;;;;;;;;;5010679;28;20054;-66
2022/04/24 07:42:57;;;;;;;0.40;0.30;;;;;;;;;;5010369;28;20060;-65
2022/04/24 07:45:34;;;;;;;0.10;0.10;;;;;;;;;;5009657;28;20423;-67
2022/04/24 07:48:02;;;;;;;0.57;0.57;;;;;;;;;;5010740;28;20065;-66
2022/04/24 07:50:29;;;;;;;0.55;0.40;;;;;;;;;;5011100;28;20046;-65
2022/04/24 07:52:56;;;;;;;0.60;0.60;;;;;;;;;;5010761;28;20176;-66
2022/04/24 07:55:24;;;;;;;4.07;2.10;;;;;;;;;;5010463;28;20072;-68
2022/04/24 07:57:53;;;;;;;1.48;1.10;;;;;;;;;;5010969;28;20049;-67
2022/04/24 08:00:21;;;;;;;4.15;2.83;;;;;;;;;;5008977;28;20390;-67
2022/04/24 08:03:02;;;;;;;0.30;0.30;;;;;;;;;;5010398;28;20050;-66
2022/04/24 08:05:33;;;;;;;0.28;0.28;;;;;;;;;;5010755;28;20088;-68
2022/04/24 08:08:03;;;;;;;0.50;0.40;;;;;;;;;;5009929;28;20042;-66
2022/04/24 08:10:32;;;;;;;1.13;0.28;;;;;;;;;;5008607;28;20416;-66
2022/04/24 08:12:59;;;;;;;0.90;0.43;;;;;;;;;;5010701;28;20100;-65
2022/04/24 08:15:25;;;;;;;0.98;0.22;;;;;;;;;;5010355;28;20115;-67
2022/04/24 08:17:52;;;;;;;2.53;0.65;;;;;;;;;;5010189;28;20108;-66
2022/04/24 08:20:19;;;;;;;0.25;0.25;;;;;;;;;;5010097;28;20053;-66
2022/04/24 08:22:48;;;;;;;15.43;12.05;;;;;;;;;;5010223;28;20104;-66
2022/04/24 08:25:20;;;;;;;4.95;4.03;;;;;;;;;;5010683;28;20058;-66
2022/04/24 08:27:47;;;;;;;3.67;1.95;;;;;;;;;;5010150;28;20140;-66
2022/04/24 08:30:15;;;;;;;0.93;0.82;;;;;;;;;;4990922;28;20489;-67
2022/04/24 08:32:42;;;;;;;0.50;0.50;;;;;;;;;;4990340;28;20065;-67
2022/04/24 08:35:11;;;;;;;1.85;0.65;;;;;;;;;;4990303;28;20079;-67
2022/04/24 08:37:38;;;;;;;1.17;0.60;;;;;;;;;;4990621;28;20054;-66
2022/04/24 08:40:06;;;;;;;2.38;0.60;;;;;;;;;;5007857;28;20586;-67
2022/04/24 08:42:33;;;;;;;1.67;1.15;;;;;;;;;;5009733;28;20436;-67
2022/04/24 08:45:00;;;;;;;1.83;1.50;;;;;;;;;;5009927;28;20049;-67
2022/04/24 08:47:27;;;;;;;1.35;0.98;;;;;;;;;;5009405;28;20053;-67
2022/04/24 08:49:56;;;;;;;0.88;0.82;;;;;;;;;;5008421;28;20057;-67
2022/04/24 08:52:23;;;;;;;1.42;1.33;;;;;;;;;;5009935;28;20057;-67
2022/04/24 08:54:52;;;;;;;1.08;0.82;;;;;;;;;;5009944;28;20050;-68
2022/04/24 08:57:19;;;;;;;2.42;1.05;;;;;;;;;;5009469;28;20045;-67
2022/04/24 08:59:46;;;;;;;1.63;1.08;;;;;;;;;;5007211;28;20045;-67
2022/04/24 09:02:34;;;;;;;1.48;1.20;;;;;;;;;;5008389;28;20424;-66
2022/04/24 09:05:03;;;;;;;1.65;1.38;;;;;;;;;;5009628;28;20526;-67
2022/04/24 09:07:33;;;;;;;1.33;1.15;;;;;;;;;;4998662;28;20042;-67
2022/04/24 09:10:09;;;;;;;1.50;1.20;;;;;;;;;;4999090;28;20054;-69
2022/04/24 09:12:37;;;;;;;1.30;1.20;;;;;;;;;;4999518;28;20049;-69
2022/04/24 09:15:05;;;;;;;1.42;0.80;;;;;;;;;;4994217;28;20050;-68
2022/04/24 09:17:32;;;;;;;2.90;1.15;;;;;;;;;;4998233;28;20058;-71
2022/04/24 09:20:00;;;;;;;1.45;1.02;;;;;;;;;;4999382;28;20061;-74
2022/04/24 09:22:27;;;;;;;1.13;1.02;;;;;;;;;;5001874;28;20140;-72
2022/04/24 09:24:59;;;;;;;1.13;0.73;;;;;;;;;;5001583;28;20125;-66
2022/04/24 09:27:27;;;;;;;2.38;1.10;;;;;;;;;;5003159;28;20050;-69
2022/04/24 09:29:59;;;;;;;4.05;1.50;;;;;;;;;;4999956;28;20042;-69
2022/04/24 09:32:30;;;;;;;5.07;2.07;;;;;;;;;;4999944;28;20058;-71
2022/04/24 09:34:57;;;;;;;7.70;2.20;;;;;;;;;;4999024;28;20097;-69
2022/04/24 09:37:24;;;;;;;7.53;3.25;;;;;;;;;;5004405;28;20062;-71
2022/04/24 09:39:52;;;;;;;5.47;2.17;;;;;;;;;;4983985;28;20050;-65
2022/04/24 09:42:20;;;;;;;2.53;1.50;;;;;;;;;;5000122;28;20058;-66
2022/04/24 09:44:51;;;;;;;2.90;1.85;;;;;;;;;;5002339;28;20077;-66
2022/04/24 09:47:37;;;;;;;4.35;2.63;;;;;;;;;;5000453;28;20112;-67
2022/04/24 09:50:10;;;;;;;5.20;1.70;;;;;;;;;;4998669;28;20568;-71
2022/04/24 09:52:37;;;;;;;6.13;2.92;;;;;;;;;;4998796;28;20125;-71
2022/04/24 09:55:04;;;;;;;2.80;1.70;;;;;;;;;;5000004;28;20057;-73
2022/04/24 09:57:31;;;;;;;3.03;1.98;;;;;;;;;;5000445;28;20132;-67
2022/04/24 09:59:57;;;;;;;4.68;2.33;;;;;;;;;;4998266;28;20053;-67
2022/04/24 10:02:24;;;;;;;5.57;2.28;;;;;;;;;;5000466;28;20080;-67
2022/04/24 10:04:53;;;;;;;7.35;3.40;;;;;;;;;;5001477;28;20054;-68
2022/04/24 10:07:19;;;;;;;8.07;3.20;;;;;;;;;;4985775;28;20461;-68
2022/04/24 10:09:47;;;;;;;7.50;3.15;;;;;;;;;;4995996;28;20422;-68
2022/04/24 10:12:20;;;;;;;10.48;3.03;;;;;;;;;;4999647;28;20077;-68
2022/04/24 10:15:06;;;;;;;10.30;2.72;;;;;;;;;;4982614;28;20480;-67
2022/04/24 10:18:08;;;;;;;7.15;2.20;;;;;;;;;;5012845;28;20141;-67
2022/04/24 10:20:47;;;;;;;7.15;3.47;;;;;;;;;;4996671;28;20046;-67
2022/04/24 10:23:13;;;;;;;5.68;3.40;;;;;;;;;;4996888;28;20397;-68
2022/04/24 10:25:43;;;;;;;5.18;3.40;;;;;;;;;;4999599;28;20481;-67
2022/04/24 10:28:19;;;;;;;2.38;1.10;;;;;;;;;;4997399;28;20050;-68
2022/04/24 10:31:01;;;;;;;4.82;2.35;;;;;;;;;;5000018;28;20053;-67
2022/04/24 10:33:30;;;;;;;4.60;2.75;;;;;;;;;;5004841;28;20505;-67
2022/04/24 10:36:06;;;;;;;2.60;2.33;;;;;;;;;;4998124;28;20065;-69
2022/04/24 10:38:44;;;;;;;4.03;3.58;;;;;;;;;;5000776;28;20038;-68
2022/04/24 10:41:24;;;;;;;3.90;2.60;;;;;;;;;;5001745;28;20964;-68
2022/04/24 10:43:56;;;;;;;5.10;1.75;;;;;;;;;;5004817;28;20054;-70
2022/04/24 10:46:26;;;;;;;3.37;1.50;;;;;;;;;;5000843;28;20517;-68
2022/04/24 10:48:54;;;;;;;2.03;1.23;;;;;;;;;;4996243;28;20046;-67
2022/04/24 10:51:30;;;;;;;4.72;1.60;;;;;;;;;;5023632;23;20036;-67
2022/04/24 10:54:00;;;;;;;1.30;1.20;;;;;;;;;;5022407;28;20046;-71
2022/04/24 10:56:27;;;;;;;1.27;0.88;;;;;;;;;;5019744;28;20049;-71
2022/04/24 10:59:16;;;;;;;2.15;1.27;;;;;;;;;;5021125;28;20041;-71
2022/04/24 11:01:44;;;;;;;3.03;1.45;;;;;;;;;;5020770;28;20054;-71
2022/04/24 11:04:14;;;;;;;2.25;1.42;;;;;;;;;;5024041;28;20053;-70
2022/04/24 11:06:58;;;;;;;2.80;1.65;;;;;;;;;;5019366;28;20173;-70
2022/04/24 11:09:36;;;;;;;1.52;1.40;;;;;;;;;;5018941;28;20049;-71
2022/04/24 11:12:07;;;;;;;5.35;2.85;;;;;;;;;;5020824;28;20064;-77
2022/04/24 11:14:42;;;;;;;3.03;1.55;;;;;;;;;;5005821;28;20049;-77
2022/04/24 11:17:10;;;;;;;2.53;1.30;;;;;;;;;;4988813;28;20046;-68
2022/04/24 11:19:39;;;;;;;1.27;0.90;;;;;;;;;;5020256;28;20567;-69
2022/04/24 11:22:11;;;;;;;1.63;1.15;;;;;;;;;;5019787;28;20050;-76
2022/04/24 11:24:39;;;;;;;1.27;1.10;;;;;;;;;;5028048;28;20132;-71
2022/04/24 11:27:12;;;;;;;1.10;0.80;;;;;;;;;;5021591;28;20480;-75
2022/04/24 11:29:43;;;;;;;1.95;0.75;;;;;;;;;;5004802;28;20054;-77
2022/04/24 11:32:13;;;;;;;1.02;0.88;;;;;;;;;;5021637;28;20054;-75
2022/04/24 11:34:40;;;;;;;2.00;0.93;;;;;;;;;;5022219;28;20053;-74
2022/04/24 11:37:09;;;;;;;3.63;1.17;;;;;;;;;;5019408;28;20061;-76
2022/04/24 11:39:38;;;;;;;2.17;1.20;;;;;;;;;;5020257;28;20443;-74
2022/04/24 11:42:05;;;;;;;3.00;1.50;;;;;;;;;;5020906;28;20103;-71
2022/04/24 11:50:18;;;;;;;2.03;1.83;;;;;;;;;;5022305;28;20673;-77
2022/04/24 11:53:05;;;;;;;5.43;1.65;;;;;;;;;;5027781;28;20045;-74
2022/04/24 11:58:40;;;;;;;1.58;0.98;;;;;;;;;;5021042;28;20050;-73
2022/04/24 12:01:12;;;;;;;3.90;1.30;;;;;;;;;;5018316;28;20050;-69
2022/04/24 12:03:43;;;;;;;0.60;0.60;;;;;;;;;;5024077;28;20520;-70
2022/04/24 12:06:11;;;;;;;2.08;1.20;;;;;;;;;;5022377;28;20057;-70
2022/04/24 12:08:39;;;;;;;2.45;0.98;;;;;;;;;;5017354;28;20508;-70
2022/04/24 12:11:07;;;;;;;0.70;0.70;;;;;;;;;;5015006;28;20401;-70
2022/04/24 12:13:34;;;;;;;1.73;1.63;;;;;;;;;;5020340;28;20088;-69
2022/04/24 12:16:02;;;;;;;1.17;0.90;;;;;;;;;;5021530;28;20555;-70
2022/04/24 12:18:29;;;;;;;0.95;0.70;;;;;;;;;;5017445;28;20104;-70
2022/04/24 12:20:56;;;;;;;1.98;0.50;;;;;;;;;;5018921;28;20099;-70
2022/04/24 12:23:26;;;;;;;1.25;0.47;;;;;;;;;;5017870;28;20053;-70
2022/04/24 12:25:59;;;;;;;2.55;1.27;;;;;;;;;;5018715;28;20045;-69
2022/04/24 12:28:26;;;;;;;;;;;;;;;;;;5019447;28;20045;-70
2022/04/24 12:30:53;;;;;;;1.27;0.60;;;;;;;;;;5016823;28;20391;-70
2022/04/24 12:33:19;;;;;;;0.85;0.50;;;;;;;;;;5016487;28;20128;-70
2022/04/24 12:35:46;;;;;;;2.00;0.70;;;;;;;;;;5016624;28;20046;-70
2022/04/24 12:38:14;;;;;;;1.52;1.33;;;;;;;;;;5018774;28;20050;-70
2022/04/24 12:40:41;;;;;;;2.20;0.80;;;;;;;;;;5017125;28;20417;-71
2022/04/24 12:43:07;;;;;;;1.33;1.05;;;;;;;;;;5019102;28;20045;-70
2022/04/24 12:45:34;;;;;;;6.47;4.18;;;;;;;;;;5022030;28;20077;-70
2022/04/24 12:48:01;;;;;;;2.33;0.95;;;;;;;;;;5019009;28;20048;-70
2022/04/24 12:50:27;;;;;;;1.02;0.90;;;;;;;;;;5017015;28;20052;-70
2022/04/24 12:52:54;;;;;;;0.70;0.63;;;;;;;;;;5018365;28;20056;-69
2022/04/24 12:55:21;;;;;;;1.27;0.70;;;;;;;;;;5019549;28;20050;-69
2022/04/24 12:57:47;;;;;;;0.80;0.73;;;;;;;;;;5019660;28;20052;-69
2022/04/24 13:00:14;;;;;;;0.95;0.55;;;;;;;;;;5022079;28;20405;-70
2022/04/24 13:02:42;;;;;;;1.75;0.80;;;;;;;;;;5024389;28;20049;-70
2022/04/24 13:05:09;;;;;;;1.13;1.10;;;;;;;;;;5026184;28;20052;-69
2022/04/24 13:07:36;;;;;;;1.52;0.90;;;;;;;;;;5021248;28;20443;-70
2022/04/24 13:10:03;;;;;;;1.83;1.20;;;;;;;;;;5022697;28;20052;-70
2022/04/24 13:12:30;;;;;;;1.15;0.95;;;;;;;;;;5019984;28;20060;-70
2022/04/24 13:14:56;;;;;;;0.57;0.55;;;;;;;;;;5025147;28;20046;-69
2022/04/24 13:20:09;;;;;;;1.98;1.10;;;;;;;;;;5021513;28;20404;-70
2022/04/24 13:22:54;;;;;;;3.85;1.77;;;;;;;;;;5023902;28;20060;-70
2022/04/24 13:25:21;;;;;;;40.65;20.42;;;;;;;;;;5021984;28;20497;-70
2022/04/24 13:27:48;;;;;;;31.33;15.00;;;;;;;;;;5021666;28;20415;-70
2022/04/24 13:30:14;;;;;;;3.10;2.10;;;;;;;;;;5024513;28;20070;-69
2022/04/24 13:32:41;;;;;;;2.10;1.65;;;;;;;;;;5021153;28;20060;-69
2022/04/24 13:35:08;;;;;;;2.15;1.30;;;;;;;;;;5025399;28;20387;-69
2022/04/24 13:40:19;;;;;;;2.00;0.93;;;;;;;;;;5023701;28;20412;-69
2022/04/24 13:42:46;;;;;;;1.05;0.95;;;;;;;;;;5019889;28;20056;-69
2022/04/24 13:45:13;;;;;;;1.98;0.73;;;;;;;;;;5022820;28;20057;-69
2022/04/24 13:47:39;;;;;;;1.02;0.80;;;;;;;;;;5021432;28;20420;-68
2022/04/24 13:50:06;;;;;;;1.27;1.00;;;;;;;;;;5020767;28;20042;-69
2022/04/24 13:52:33;;;;;;;0.90;0.55;;;;;;;;;;5023670;28;20049;-69
2022/04/24 13:55:00;;;;;;;3.03;0.55;;;;;;;;;;5020752;28;20056;-69
2022/04/24 13:57:26;;;;;;;0.60;0.60;;;;;;;;;;5022026;28;20046;-68
2022/04/24 13:59:53;;;;;;;1.05;0.60;;;;;;;;;;5019389;28;20505;-68
2022/04/24 14:02:20;;;;;;;0.47;0.40;;;;;;;;;;5022040;28;20493;-69
2022/04/24 14:04:47;;;;;;;0.50;0.40;;;;;;;;;;5026651;28;20232;-68
2022/04/24 14:07:13;;;;;;;0.60;0.47;;;;;;;;;;5021774;28;20053;-68
2022/04/24 14:09:43;;;;;;;1.10;0.60;;;;;;;;;;5017766;28;20046;-69
2022/04/24 14:12:10;;;;;;;0.95;0.60;;;;;;;;;;5021523;28;20059;-69
2022/04/24 14:14:37;;;;;;;0.65;0.65;;;;;;;;;;5019989;28;20053;-70
2022/04/24 14:17:03;;;;;;;0.73;0.68;;;;;;;;;;5014454;28;20492;-72
2022/04/24 14:19:31;;;;;;;0.98;0.60;;;;;;;;;;5018113;28;20050;-66
2022/04/24 14:21:58;;;;;;;1.52;1.13;;;;;;;;;;5020287;28;20045;-72
2022/04/24 14:24:25;;;;;;;1.38;1.10;;;;;;;;;;5026456;28;20089;-73
2022/04/24 14:26:53;;;;;;;2.45;1.10;;;;;;;;;;5021349;28;20056;-74
2022/04/24 14:29:21;;;;;;;2.53;0.95;;;;;;;;;;5003784;28;20054;-71
2022/04/24 14:31:51;;;;;;;1.00;0.90;;;;;;;;;;5018596;28;20052;-72
2022/04/24 14:34:21;;;;;;;0.98;0.80;;;;;;;;;;5026241;28;20438;-72
2022/04/24 14:36:48;;;;;;;1.73;0.90;;;;;;;;;;5020141;28;20129;-74
2022/04/24 14:39:17;;;;;;;1.10;1.00;;;;;;;;;;5021306;28;20422;-73
2022/04/24 14:41:44;;;;;;;1.00;0.90;;;;;;;;;;5019530;28;20053;-75
2022/04/24 14:44:11;;;;;;;1.40;1.02;;;;;;;;;;5021894;28;20053;-76
2022/04/24 14:57:38;;;;;;;0.90;0.90;;;;;;;;;;5021752;28;20076;-74
2022/04/24 15:00:06;;;;;;;1.50;1.40;;;;;;;;;;5019096;28;20077;-72
2022/04/24 15:02:32;;;;;;;1.10;1.00;;;;;;;;;;5021853;28;20060;-69
2022/04/24 15:05:00;;;;;;;1.92;1.60;;;;;;;;;;5026399;28;20123;-70